Terminal Aerodrome Forecast
Issued by NWS

Home | Current Version | Previous Version | Text Only | Print | Product List | Glossary On
Versions: 1 2 3 4 5 6 7 8 9 10 11 12 13 14 15 16 17 18
354
FTUS45 KABQ 011910 AAA
TAFSAF
TAF AMD
KSAF 011910Z 0119/0218 36011KT P6SM VCSH SCT015 OVC040
      TEMPO 0119/0122 5SM -RA BR OVC025
     FM012200 14015G25KT P6SM VCSH BKN040
     FM020100 13018G28KT P6SM VCSH BKN050
     FM020300 14015KT P6SM OVC050
     FM020800 12007KT P6SM SCT015 OVC040
      TEMPO 0208/0212 OVC015
     FM021600 16008KT P6SM BKN040=

USA.gov is the U.S. government's official web portal to all federal, state and local government web resources and services.